Time;durP1;ratioP1;P1;durP2;ratioP2;P2;SDS_P1;SDS_P2;PMS_P1;PMS_P2;Temp;Humidity;BMP_temperature;BMP_pressure;BME280_temperature;BME280_humidity;BME280_pressure;Samples;Min_cycle;Max_cycle;Signal;HPM_P1;HPM_P2
2022/08/01 00:00:40;;;;;;;;;3.00;2.33;;;;;24.17;52.26;101523.84;6185453;23;45297;-79
2022/08/01 00:03:05;;;;;;;;;1.33;1.33;;;;;24.19;52.49;101528.19;6157598;23;45253;-79
2022/08/01 00:05:44;;;;;;;;;;;;;;;;;;;;;
2022/08/01 00:08:09;;;;;;;;;1.00;1.00;;;;;24.13;52.41;101511.47;6184250;23;72949;-79
2022/08/01 00:10:35;;;;;;;;;1.00;1.00;;;;;24.23;51.92;101522.66;6185021;23;46703;-81
2022/08/01 00:13:00;;;;;;;;;1.00;1.00;;;;;24.09;52.01;101502.69;6186315;23;45377;-83
2022/08/01 00:15:26;;;;;;;;;1.00;1.00;;;;;24.08;51.95;101500.91;6186206;23;45393;-83
2022/08/01 00:17:51;;;;;;;;;2.00;2.00;;;;;24.18;52.13;101514.81;6184934;23;45342;-83
2022/08/01 00:20:19;;;;;;;;;1.00;1.00;;;;;24.12;52.03;101507.03;6187216;23;45280;-84
2022/08/01 00:22:46;;;;;;;;;1.67;1.67;;;;;24.11;52.23;101497.19;6158113;23;45302;-83
2022/08/01 00:25:12;;;;;;;;;2.00;2.00;;;;;24.07;52.29;101485.72;6159123;23;45381;-84
2022/08/01 00:27:37;;;;;;;;;2.67;2.67;;;;;24.12;52.05;101507.91;6186768;23;45388;-84
2022/08/01 00:30:03;;;;;;;;;2.33;2.00;;;;;24.13;52.40;101506.09;6159922;23;46929;-83
2022/08/01 00:32:33;;;;;;;;;2.00;2.00;;;;;24.02;52.48;101482.38;6159786;23;45339;-84
2022/08/01 00:34:59;;;;;;;;;0.67;0.67;;;;;23.99;51.92;101479.84;6186950;23;45283;-83
2022/08/01 00:37:24;;;;;;;;;2.00;2.00;;;;;24.04;52.23;101483.19;6186907;23;45204;-83
2022/08/01 00:39:50;;;;;;;;;1.00;1.00;;;;;24.02;52.62;101492.28;6159619;23;47136;-84
2022/08/01 00:42:15;;;;;;;;;1.00;1.00;;;;;24.04;52.26;101499.34;6186887;23;45218;-83
2022/08/01 00:44:41;;;;;;;;;0.33;0.33;;;;;23.95;52.68;101487.19;6160075;23;45263;-84
2022/08/01 00:47:08;;;;;;;;;2.33;2.33;;;;;23.91;52.42;101476.66;6160139;23;45254;-83
2022/08/01 00:49:39;;;;;;;;;1.33;1.33;;;;;23.91;52.11;101484.72;6187013;23;45391;-83
2022/08/01 00:52:05;;;;;;;;;2.00;1.00;;;;;23.81;52.62;101469.97;6159694;23;45424;-84
2022/08/01 00:54:38;;;;;;;;;1.33;1.33;;;;;23.87;52.51;101481.31;6186677;23;45234;-84
2022/08/01 00:57:07;;;;;;;;;2.00;2.00;;;;;23.78;52.47;101465.59;6186389;23;45277;-84
2022/08/01 00:59:34;;;;;;;;;2.00;2.00;;;;;23.76;52.76;101464.78;6159976;23;47089;-84
2022/08/01 01:01:59;;;;;;;;;1.67;1.67;;;;;23.85;52.25;101490.41;6159903;23;45598;-84
2022/08/01 01:04:27;;;;;;;;;1.00;1.00;;;;;23.78;52.92;101469.16;6160085;23;45384;-83
2022/08/01 01:07:09;;;;;;;;;2.33;2.33;;;;;23.90;52.60;101491.94;6159630;23;45746;-84
2022/08/01 01:10:04;;;;;;;;;2.33;2.33;;;;;23.90;52.46;101500.00;6159183;23;46829;-84
2022/08/01 01:12:45;;;;;;;;;1.00;1.00;;;;;23.90;52.49;101493.75;6159922;23;45261;-83
2022/08/01 01:15:18;;;;;;;;;1.00;1.00;;;;;23.79;52.99;101470.06;6160221;23;45272;-84
2022/08/01 01:18:00;;;;;;;;;2.00;2.00;;;;;23.95;52.56;101484.50;6188036;23;45171;-83
2022/08/01 01:20:36;;;;;;;;;2.33;2.00;;;;;23.94;52.88;101487.25;6160303;23;47223;-84
2022/08/01 01:23:24;;;;;;;;;3.33;2.33;;;;;23.99;52.52;101482.53;6188104;23;45298;-84
2022/08/01 01:26:23;;;;;;;;;2.33;1.67;;;;;23.96;52.67;101488.06;6161095;23;45240;-83
2022/08/01 01:29:02;;;;;;;;;3.00;2.00;;;;;23.92;52.87;101490.03;6188059;23;45376;-84
2022/08/01 01:31:30;;;;;;;;;2.00;2.00;;;;;23.82;53.25;101472.59;6160103;23;46830;-83
2022/08/01 01:33:59;;;;;;;;;1.67;1.67;;;;;23.74;52.75;101461.34;6187990;23;45229;-84
2022/08/01 01:36:26;;;;;;;;;1.33;1.00;;;;;23.82;53.10;101474.38;6160170;23;45407;-83
2022/08/01 01:38:54;;;;;;;;;2.00;1.33;;;;;23.87;52.91;101488.50;6187628;23;45214;-83
2022/08/01 01:41:20;;;;;;;;;1.33;1.00;;;;;23.68;53.15;101448.13;6187442;23;45572;-84
2022/08/01 01:43:48;;;;;;;;;1.00;1.00;;;;;23.75;53.38;101474.69;6160497;23;45213;-84
2022/08/01 01:46:22;;;;;;;;;1.00;1.00;;;;;23.81;53.06;101476.22;6160885;23;45421;-84
2022/08/01 01:48:49;;;;;;;;;1.33;1.33;;;;;23.75;52.77;101465.75;6187912;23;45456;-84
2022/08/01 01:51:16;;;;;;;;;2.00;2.00;;;;;23.74;53.09;101467.56;6185479;23;48050;-83
2022/08/01 01:53:43;;;;;;;;;3.00;2.00;;;;;23.69;52.84;101453.44;6160602;23;45785;-84
2022/08/01 01:56:11;;;;;;;;;1.00;0.67;;;;;23.70;53.06;101460.56;6160205;23;45457;-84
2022/08/01 01:58:39;;;;;;;;;1.33;1.33;;;;;23.81;52.76;101472.66;6160784;23;45403;-83
2022/08/01 02:01:06;;;;;;;;;1.00;1.00;;;;;23.88;53.23;101484.88;6160510;23;48058;-84
2022/08/01 02:03:37;;;;;;;;;1.00;1.00;;;;;23.70;53.28;101460.56;6185823;23;45142;-83
2022/08/01 02:06:03;;;;;;;;;1.00;1.00;;;;;23.75;53.31;101468.44;6187801;23;45320;-83
2022/08/01 02:08:30;;;;;;;;;1.00;1.00;;;;;23.85;53.16;101485.03;6185221;23;45354;-84
2022/08/01 02:13:43;;;;;;;;;2.00;2.00;;;;;23.79;53.57;101472.75;6187416;23;45256;-84
2022/08/01 02:16:10;;;;;;;;;3.00;2.00;;;;;23.81;53.48;101473.53;6187992;23;45170;-83
2022/08/01 02:18:36;;;;;;;;;2.00;1.67;;;;;23.76;53.41;101459.41;6160470;23;45409;-84
2022/08/01 02:21:05;;;;;;;;;2.33;2.33;;;;;23.70;53.60;101452.47;6160390;23;46647;-84
2022/08/01 02:23:37;;;;;;;;;1.00;1.00;;;;;23.78;53.36;101466.47;6187460;23;45419;-84
2022/08/01 02:26:09;;;;;;;;;3.00;2.00;;;;;23.70;53.51;101446.25;6160778;23;45388;-84
2022/08/01 02:28:44;;;;;;;;;1.33;1.33;;;;;23.77;53.38;101466.56;6160213;23;45311;-84
2022/08/01 02:31:16;;;;;;;;;2.00;2.00;;;;;23.72;53.01;101460.53;6160042;23;46999;-83
2022/08/01 02:33:48;;;;;;;;;3.00;3.00;;;;;23.73;53.72;101459.56;6160313;23;45228;-83
2022/08/01 02:36:16;;;;;;;;;2.00;2.00;;;;;23.70;53.80;101455.16;6187715;23;45210;-83
2022/08/01 02:38:45;;;;;;;;;2.00;2.00;;;;;23.70;53.59;101470.44;6184990;23;45388;-83
2022/08/01 02:41:16;;;;;;;;;2.67;1.00;;;;;23.65;53.47;101459.03;6186978;23;45455;-83
2022/08/01 02:43:48;;;;;;;;;3.00;2.00;;;;;23.71;53.45;101474.84;6187650;23;45233;-83
2022/08/01 02:46:22;;;;;;;;;2.67;1.00;;;;;23.62;53.97;101467.25;6160571;23;45379;-84
2022/08/01 02:48:52;;;;;;;;;0.67;0.67;;;;;23.70;54.12;101481.19;6187410;23;45290;-84
2022/08/01 02:51:21;;;;;;;;;3.00;3.00;;;;;23.52;53.57;101453.34;6159954;23;47256;-83
2022/08/01 02:53:51;;;;;;;;;3.00;3.00;;;;;23.53;54.01;101460.47;6160141;23;45369;-83
2022/08/01 02:56:20;;;;;;;;;3.00;3.00;;;;;23.54;53.86;101463.09;6160076;23;45207;-84
2022/08/01 02:58:47;;;;;;;;;2.67;2.00;;;;;23.64;53.98;101479.66;6160339;23;45909;-84
2022/08/01 03:01:15;;;;;;;;;3.00;2.00;;;;;23.65;54.07;101483.22;6187587;23;46174;-84
2022/08/01 03:03:41;;;;;;;;;1.00;1.00;;;;;23.48;54.23;101451.75;6160651;23;45289;-84
2022/08/01 03:06:08;;;;;;;;;2.67;2.67;;;;;23.54;54.59;101468.47;6160427;23;45409;-84
2022/08/01 03:08:36;;;;;;;;;2.67;2.67;;;;;23.50;54.52;101450.75;6159879;23;45396;-84
2022/08/01 03:11:03;;;;;;;;;1.33;1.33;;;;;23.48;54.23;101458.00;6185042;23;47066;-83
2022/08/01 03:13:30;;;;;;;;;2.00;2.00;;;;;23.51;54.86;101451.63;6160155;23;45416;-84
2022/08/01 03:15:57;;;;;;;;;1.00;1.00;;;;;23.54;54.38;101463.09;6187757;23;45395;-84
2022/08/01 03:18:26;;;;;;;;;1.00;1.00;;;;;23.64;54.87;101478.81;6187578;23;45389;-84
2022/08/01 03:20:56;;;;;;;;;2.00;2.00;;;;;23.59;54.23;101475.44;6187681;23;46029;-84
2022/08/01 03:23:23;;;;;;;;;1.33;0.00;;;;;23.56;55.01;101471.97;6159693;23;45271;-84
2022/08/01 03:25:51;;;;;;;;;1.67;1.67;;;;;23.50;54.81;101460.63;6160329;23;45212;-84
2022/08/01 03:28:18;;;;;;;;;2.00;2.00;;;;;23.56;54.94;101473.78;6187501;23;45472;-84
2022/08/01 03:30:45;;;;;;;;;0.00;0.00;;;;;23.40;54.71;101453.94;6185399;23;46901;-84
2022/08/01 03:33:11;;;;;;;;;1.00;1.00;;;;;23.49;54.78;101470.47;6187531;23;45438;-84
2022/08/01 03:35:42;;;;;;;;;2.00;2.00;;;;;23.45;55.63;101465.34;6187526;23;45359;-84
2022/08/01 03:38:10;;;;;;;;;1.67;1.67;;;;;23.43;55.07;101460.03;6160041;23;45594;-83
2022/08/01 03:40:39;;;;;;;;;3.33;3.00;;;;;23.36;55.31;101453.19;6160556;23;47116;-83
2022/08/01 03:43:18;;;;;;;;;2.00;2.00;;;;;23.44;55.45;101460.91;6160273;23;45236;-84
2022/08/01 03:45:49;;;;;;;;;1.00;1.00;;;;;23.46;55.64;101459.88;6159877;23;45223;-84
2022/08/01 03:48:18;;;;;;;;;1.00;1.00;;;;;23.45;55.35;101458.16;6160574;23;45310;-84
2022/08/01 03:50:48;;;;;;;;;1.33;1.00;;;;;23.38;55.20;101456.69;6160038;23;48161;-84
2022/08/01 03:53:15;;;;;;;;;0.67;0.67;;;;;23.53;55.63;101482.84;6160144;23;45678;-83
2022/08/01 03:55:43;;;;;;;;;1.67;1.67;;;;;23.47;55.67;101469.72;6187559;23;45321;-84
2022/08/01 03:58:10;;;;;;;;;2.00;1.67;;;;;23.39;55.66;101463.81;6160775;23;45529;-85
2022/08/01 04:00:39;;;;;;;;;1.00;1.00;;;;;23.54;55.35;101484.59;6161221;23;48014;-84
2022/08/01 04:03:06;;;;;;;;;1.00;1.00;;;;;23.56;55.79;101485.41;6188643;23;45219;-84
2022/08/01 04:05:32;;;;;;;;;2.00;2.00;;;;;23.57;55.78;101483.56;6161987;23;45305;-83
2022/08/01 04:07:59;;;;;;;;;2.00;2.00;;;;;23.44;55.92;101464.47;6164065;23;45544;-84
2022/08/01 04:10:25;;;;;;;;;1.33;1.33;;;;;23.60;55.89;101485.25;6188318;23;47072;-84
2022/08/01 04:12:50;;;;;;;;;1.67;1.67;;;;;23.47;55.63;101463.44;6190661;23;45363;-83
2022/08/01 04:15:16;;;;;;;;;2.00;2.00;;;;;23.49;55.97;101467.78;6166811;23;45450;-84
2022/08/01 04:17:42;;;;;;;;;3.00;3.00;;;;;23.39;55.73;101445.00;6162792;23;45397;-84
2022/08/01 04:20:08;;;;;;;;;3.00;2.33;;;;;23.56;55.39;101471.09;6175465;23;46982;-83
2022/08/01 04:22:35;;;;;;;;;1.33;1.00;;;;;23.55;55.69;101470.22;6207461;23;45342;-82
2022/08/01 04:25:08;;;;;;;;;1.33;1.33;;;;;23.38;55.50;101439.69;6181550;23;44663;-83
2022/08/01 04:27:38;;;;;;;;;1.00;1.00;;;;;23.39;56.10;101455.75;6180916;23;45201;-82
2022/08/01 04:30:06;;;;;;;;;2.00;2.00;;;;;23.27;56.18;101438.34;6180814;23;47090;-83
2022/08/01 04:32:37;;;;;;;;;1.00;1.00;;;;;23.33;56.23;101447.94;6177781;23;45301;-83
2022/08/01 04:35:07;;;;;;;;;1.00;1.00;;;;;23.27;56.05;101443.72;6160984;23;45452;-82
2022/08/01 04:37:36;;;;;;;;;2.67;2.00;;;;;23.19;56.57;101428.91;6160087;23;45912;-83
2022/08/01 04:40:05;;;;;;;;;2.00;1.33;;;;;23.25;56.18;101456.34;6184817;23;48060;-83
2022/08/01 04:42:31;;;;;;;;;0.67;0.67;;;;;23.22;56.62;101448.44;6186753;23;45266;-83
2022/08/01 04:44:57;;;;;;;;;1.33;1.33;;;;;23.11;56.41;101450.75;6160378;23;45333;-83
2022/08/01 04:47:24;;;;;;;;;1.00;1.00;;;;;23.08;56.47;101442.81;6187308;23;45116;-83
2022/08/01 04:49:50;;;;;;;;;1.00;1.00;;;;;23.22;56.51;101466.38;6160150;23;47240;-83
2022/08/01 04:52:17;;;;;;;;;1.00;1.00;;;;;23.06;56.56;101448.25;6159726;23;45701;-83
2022/08/01 04:54:43;;;;;;;;;1.00;1.00;;;;;23.14;56.46;101468.53;6159708;23;45440;-83
2022/08/01 04:57:08;;;;;;;;;1.00;1.00;;;;;23.08;56.98;101464.31;6186358;23;45424;-83
2022/08/01 04:59:40;;;;;;;;;2.67;0.33;;;;;23.10;56.81;101462.44;6159705;23;47009;-83
2022/08/01 05:02:07;;;;;;;;;3.00;3.00;;;;;23.09;56.42;101468.72;6159866;23;45241;-83
2022/08/01 05:04:33;;;;;;;;;1.67;1.67;;;;;23.11;56.78;101475.78;6160016;23;45252;-83
2022/08/01 05:07:01;;;;;;;;;2.33;1.67;;;;;23.07;56.44;101474.19;6186623;23;45293;-83
2022/08/01 05:09:26;;;;;;;;;3.00;3.00;;;;;23.01;56.68;101474.44;6186718;23;46572;-83
2022/08/01 05:11:52;;;;;;;;;2.33;2.33;;;;;22.99;56.91;101476.34;6158849;23;45429;-83
2022/08/01 05:14:17;;;;;;;;;1.00;1.00;;;;;22.97;56.69;101466.59;6186815;23;45206;-83
2022/08/01 05:16:45;;;;;;;;;1.00;1.00;;;;;23.10;56.67;101505.41;6159956;23;45203;-82
2022/08/01 05:19:10;;;;;;;;;1.67;1.00;;;;;22.96;56.86;101487.22;6159490;23;47208;-83
2022/08/01 05:21:36;;;;;;;;;1.33;1.00;;;;;22.94;56.42;101483.69;6184317;23;45297;-78
2022/08/01 05:24:02;;;;;;;;;1.00;1.00;;;;;23.10;56.74;101511.66;6159330;23;45179;-81
2022/08/01 05:26:27;;;;;;;;;2.00;2.00;;;;;23.06;56.49;101490.38;6159518;23;45955;-81
2022/08/01 05:28:53;;;;;;;;;2.67;2.67;;;;;23.15;56.60;101505.19;6186425;23;46417;-81
2022/08/01 05:31:18;;;;;;;;;1.00;1.00;;;;;22.99;56.61;101484.41;6186299;23;45309;-81
2022/08/01 05:33:43;;;;;;;;;1.33;1.33;;;;;23.03;56.51;101485.13;6186731;23;45417;-81
2022/08/01 05:36:09;;;;;;;;;2.00;2.00;;;;;23.14;56.85;101500.78;6186509;23;45309;-81
2022/08/01 05:38:35;;;;;;;;;0.00;0.00;;;;;23.07;56.82;101486.75;6158893;23;46868;-81
2022/08/01 05:41:00;;;;;;;;;2.00;1.00;;;;;23.13;56.86;101499.91;6186681;23;45199;-81
2022/08/01 05:43:26;;;;;;;;;1.67;1.00;;;;;23.18;56.47;101497.03;6159685;23;45311;-81
2022/08/01 05:45:51;;;;;;;;;1.00;1.00;;;;;23.22;56.63;101504.84;6186211;23;45436;-81
2022/08/01 05:48:19;;;;;;;;;1.00;1.00;;;;;23.22;56.08;101504.00;6186243;23;46132;-81
2022/08/01 05:50:44;;;;;;;;;3.00;1.33;;;;;23.13;56.02;101493.66;6157412;23;45404;-81
2022/08/01 05:53:10;;;;;;;;;1.00;1.00;;;;;23.13;55.94;101502.59;6158702;23;45421;-81
2022/08/01 05:55:35;;;;;;;;;1.00;1.00;;;;;23.09;56.34;101493.81;6159405;23;45460;-81
2022/08/01 05:58:01;;;;;;;;;1.33;1.33;;;;;23.02;55.94;101495.00;6159112;23;47269;-80
2022/08/01 06:00:27;;;;;;;;;1.33;1.33;;;;;23.09;56.46;101511.72;6159495;23;45514;-82
2022/08/01 06:02:52;;;;;;;;;2.00;2.00;;;;;23.00;56.30;101496.88;6187172;23;45320;-83
2022/08/01 06:05:18;;;;;;;;;1.33;1.33;;;;;23.06;56.33;101498.41;6160243;23;45253;-84
2022/08/01 06:07:46;;;;;;;;;2.33;2.33;;;;;23.07;55.91;101501.06;6185557;23;47946;-83
2022/08/01 06:10:11;;;;;;;;;3.33;2.00;;;;;23.18;56.35;101530.13;6187532;23;45457;-85
2022/08/01 06:12:42;;;;;;;;;1.00;1.00;;;;;23.06;56.20;101512.72;6160960;23;45483;-85
2022/08/01 06:15:08;;;;;;;;;1.33;1.00;;;;;23.06;56.36;101519.91;6187444;23;45308;-85
2022/08/01 06:17:34;;;;;;;;;1.00;1.00;;;;;22.92;56.28;101501.69;6186027;23;47893;-86
2022/08/01 06:19:59;;;;;;;;;3.00;3.00;;;;;22.94;56.33;101507.88;6161678;23;45287;-89
2022/08/01 06:22:25;;;;;;;;;2.00;2.00;;;;;22.84;56.33;101502.00;6162038;23;45253;-88
2022/08/01 06:25:21;;;;;;;;;1.00;1.00;;;;;22.87;56.24;101509.94;6161707;23;45516;-87
2022/08/01 06:27:57;;;;;;;;;1.33;1.00;;;;;22.81;56.58;101507.50;6161553;23;47169;-87
2022/08/01 06:30:28;;;;;;;;;3.00;3.00;;;;;22.94;56.42;101521.28;6160764;23;45849;-86
2022/08/01 07:38:39;;;;;;;;;4.33;3.00;;;;;24.21;53.95;101537.03;6289429;22;45160;-93
2022/08/01 07:41:05;;;;;;;;;5.33;5.00;;;;;24.20;53.82;101545.22;6248329;22;45334;-87
2022/08/01 07:43:40;;;;;;;;;;;;;;;;;;;;;
2022/08/01 07:48:04;;;;;;;;;6.00;6.00;;;;;24.01;53.89;101531.75;6283314;22;72914;-89
2022/08/01 08:07:13;;;;;;;;;4.00;4.00;;;;;23.98;54.24;101557.00;6162327;23;44800;-88
2022/08/01 08:09:47;;;;;;;;;4.00;4.00;;;;;23.99;54.06;101544.41;6182727;23;45648;-87
2022/08/01 08:12:34;;;;;;;;;4.00;4.00;;;;;24.14;53.91;101550.91;6159018;23;45298;-89
2022/08/01 08:15:41;;;;;;;;;4.33;4.33;;;;;24.21;54.09;101539.75;6215777;22;45725;-88
2022/08/01 08:18:27;;;;;;;;;4.33;4.00;;;;;24.49;53.29;101553.72;6191925;22;45266;-91
2022/08/01 08:20:54;;;;;;;;;5.33;5.33;;;;;24.60;53.38;101546.84;6173247;22;45282;-92
2022/08/01 08:26:08;;;;;;;;;3.67;3.67;;;;;24.85;52.82;101541.09;6217486;22;45450;-87
2022/08/01 08:32:03;;;;;;;;;6.00;5.33;;;;;24.93;51.83;101551.50;6094660;23;45486;-85
2022/08/01 08:34:54;;;;;;;;;;;;;;;;;;;;;
2022/08/01 08:37:31;;;;;;;;;4.00;4.00;;;;;25.06;51.80;101544.53;6135894;22;74571;-85
2022/08/01 08:40:16;;;;;;;;;;;;;;;;;;;;;
2022/08/01 08:46:33;;;;;;;;;;;;;;;;;;;;;
2022/08/01 08:49:25;;;;;;;;;4.00;4.00;;;;;25.72;50.49;101534.81;6216397;22;73621;-88
2022/08/01 08:51:53;;;;;;;;;4.33;3.00;;;;;25.87;50.07;101536.66;6186322;22;45394;-83
2022/08/01 08:54:24;;;;;;;;;4.00;4.00;;;;;25.91;49.78;101523.91;6187299;22;45387;-84
2022/08/01 08:57:34;;;;;;;;;3.67;3.00;;;;;26.08;49.52;101528.34;6213926;22;45644;-85
2022/08/01 09:00:10;;;;;;;;;4.33;4.33;;;;;26.13;48.62;101520.84;6214964;22;45340;-83
2022/08/01 09:02:35;;;;;;;;;4.33;4.33;;;;;26.31;48.28;101536.00;6214836;22;45531;-81
2022/08/01 09:05:27;;;;;;;;;5.33;3.00;;;;;26.30;48.60;101515.38;6187778;22;45197;-83
2022/08/01 09:07:53;;;;;;;;;3.00;3.00;;;;;26.51;48.32;101533.97;6214290;22;45455;-79
2022/08/01 09:10:18;;;;;;;;;6.00;4.67;;;;;26.54;48.12;101529.31;6188197;22;47153;-79
2022/08/01 09:13:14;;;;;;;;;3.00;3.00;;;;;26.63;47.54;101527.03;6215115;22;45361;-78
2022/08/01 09:15:39;;;;;;;;;2.67;2.67;;;;;26.81;47.29;101540.34;6186762;22;45460;-79
2022/08/01 09:18:06;;;;;;;;;4.67;2.33;;;;;26.81;46.91;101531.34;6187692;22;45436;-79
2022/08/01 09:20:34;;;;;;;;;3.67;3.67;;;;;26.84;46.87;101528.47;6186062;22;48308;-80
2022/08/01 09:23:03;;;;;;;;;1.67;1.67;;;;;26.87;46.28;101531.00;6214256;22;45248;-84
2022/08/01 09:25:56;;;;;;;;;1.67;1.67;;;;;26.82;46.16;101536.66;6187100;22;45825;-80
2022/08/01 09:28:31;;;;;;;;;4.00;3.00;;;;;26.78;45.91;101545.03;6187130;22;45436;-79
2022/08/01 09:30:57;;;;;;;;;2.00;2.00;;;;;26.65;46.41;101538.59;6213059;22;45512;-80
2022/08/01 09:33:52;;;;;;;;;2.00;2.00;;;;;26.55;46.27;101531.06;6187038;22;46148;-82
2022/08/01 09:36:59;;;;;;;;;3.00;3.00;;;;;26.37;46.06;101543.75;6186856;22;45414;-82
2022/08/01 09:40:20;;;;;;;;;1.33;1.33;;;;;26.25;46.72;101544.47;6199468;22;45517;-85
2022/08/01 09:42:51;;;;;;;;;2.67;2.67;;;;;26.10;47.35;101540.78;6215142;22;46104;-81
2022/08/01 09:46:10;;;;;;;;;;;;;;;;;;;;;
2022/08/01 09:55:47;;;;;;;;;5.33;3.33;;;;;25.96;47.82;101538.88;6096935;23;45236;-90
2022/08/01 10:02:27;;;;;;;;;;;;;;;;;;;;;
2022/08/01 10:05:08;;;;;;;;;;;;;;;;;;;;;
2022/08/01 10:08:13;;;;;;;;;7.00;6.00;;;;;26.42;47.04;101539.94;6120665;23;75007;-86
2022/08/01 10:15:20;;;;;;;;;4.67;4.67;;;;;26.49;47.07;101534.09;6018231;23;45557;-87
2022/08/01 10:18:21;;;;;;;;;5.33;4.33;;;;;26.64;46.99;101532.34;5982494;23;45622;-86
2022/08/01 10:21:20;;;;;;;;;;;;;;;;;;;;;
2022/08/01 10:24:54;;;;;;;;;;;;;;;;;;;;;
2022/08/01 10:31:39;;;;;;;;;6.67;6.67;;;;;27.05;45.75;101527.19;5977414;23;45463;-88
2022/08/01 10:35:18;;;;;;;;;5.67;5.67;;;;;27.05;45.66;101529.88;5980679;23;47099;-89
2022/08/01 10:37:50;;;;;;;;;4.33;4.33;;;;;27.10;45.82;101548.50;5908486;23;45308;-83
2022/08/01 10:40:16;;;;;;;;;43.25;36.50;;;;;27.05;45.66;101546.09;5980228;23;45503;-82
2022/08/01 10:42:43;;;;;;;;;7.33;7.33;;;;;27.03;45.90;101561.53;6178309;22;45809;-83
2022/08/01 10:45:11;;;;;;;;;196.25;181.25;;;;;26.97;45.77;101551.09;6220453;22;47228;-84
2022/08/01 10:48:10;;;;;;;;;22.00;20.00;;;;;26.99;46.06;101551.84;6220269;22;45228;-82
2022/08/01 10:50:45;;;;;;;;;5.00;5.00;;;;;27.09;45.81;101543.22;6220496;22;45363;-82
2022/08/01 10:53:12;;;;;;;;;7.33;5.33;;;;;27.19;45.54;101537.19;6247319;22;45593;-82
2022/08/01 10:55:56;;;;;;;;;3.67;3.00;;;;;27.38;45.26;101536.06;6220237;22;47360;-84
2022/08/01 10:58:32;;;;;;;;;4.00;3.00;;;;;27.47;45.12;101539.03;6219981;22;45362;-83
2022/08/01 11:01:18;;;;;;;;;0.00;0.00;;;;;27.56;45.27;101545.75;6220001;22;45311;-89
2022/08/01 11:04:17;;;;;;;;;4.00;3.67;;;;;27.57;44.91;101544.75;6220053;22;45422;-83
2022/08/01 11:07:11;;;;;;;;;5.00;5.00;;;;;27.56;44.78;101537.63;6180177;22;46177;-83
2022/08/01 11:09:45;;;;;;;;;7.00;7.00;;;;;27.61;44.25;101542.72;6232133;22;45135;-82
2022/08/01 11:12:14;;;;;;;;;4.67;4.67;;;;;27.75;44.77;101540.03;6220289;22;45413;-85
2022/08/01 11:14:58;;;;;;;;;4.33;4.33;;;;;27.87;44.54;101543.81;6220453;22;45290;-83
2022/08/01 11:17:47;;;;;;;;;7.67;6.00;;;;;27.84;44.16;101535.91;6216956;22;46109;-84
2022/08/01 11:20:14;;;;;;;;;4.67;4.33;;;;;27.87;43.97;101546.53;6216825;22;45363;-83
2022/08/01 11:23:01;;;;;;;;;5.33;4.00;;;;;27.84;44.00;101547.59;6215123;22;45281;-83
2022/08/01 11:25:48;;;;;;;;;3.67;3.67;;;;;27.79;43.91;101546.13;6217230;22;45250;-85
2022/08/01 11:28:13;;;;;;;;;4.33;4.33;;;;;27.78;43.69;101541.69;6216933;22;45413;-83
2022/08/01 11:30:50;;;;;;;;;2.67;2.67;;;;;27.94;43.73;101545.19;6189804;22;45564;-83
2022/08/01 11:33:19;;;;;;;;;4.00;4.00;;;;;28.06;43.50;101520.00;6190380;22;45345;-83
2022/08/01 11:36:20;;;;;;;;;6.00;5.00;;;;;28.26;43.14;101529.56;6189589;22;45727;-83
2022/08/01 11:39:10;;;;;;;;;6.00;5.00;;;;;28.45;43.49;101531.94;6098853;23;46980;-84
2022/08/01 11:41:37;;;;;;;;;5.00;5.00;;;;;28.65;43.08;101533.31;6213652;22;45185;-82
2022/08/01 11:44:11;;;;;;;;;6.00;5.00;;;;;28.65;42.48;101536.00;6190892;22;45339;-86
2022/08/01 11:47:12;;;;;;;;;5.33;5.33;;;;;28.62;42.77;101529.94;6215309;22;45361;-85
2022/08/01 11:49:40;;;;;;;;;6.00;6.00;;;;;28.55;42.49;101529.50;6142171;22;47389;-83
2022/08/01 11:52:26;;;;;;;;;6.00;6.00;;;;;28.43;42.29;101535.69;6189866;22;45453;-83
2022/08/01 11:55:11;;;;;;;;;;;;;;;;;;;;;
2022/08/01 11:57:45;;;;;;;;;2.33;2.33;;;;;28.15;42.49;101518.56;6216643;22;72864;-86
2022/08/01 12:01:10;;;;;;;;;;;;;;;;;;;;;
2022/08/01 12:03:35;;;;;;;;;5.00;5.00;;;;;27.90;43.01;101516.56;6190356;22;45391;-84
2022/08/01 12:06:48;;;;;;;;;7.00;5.67;;;;;27.89;42.31;101507.56;6191563;22;45266;-85
2022/08/01 12:13:25;;;;;;;;;;;;;;;;;;;;;
2022/08/01 12:16:06;;;;;;;;;;;;;;;;;;;;;
2022/08/01 12:22:09;;;;;;;;;5.00;5.00;;;;;28.08;42.27;101506.38;6200910;22;45311;-84
2022/08/01 12:56:56;;;;;;;;;3.67;3.67;;;;;28.76;40.97;101516.31;5094423;27;45470;-86
2022/08/01 12:59:32;;;;;;;;;5.00;5.00;;;;;29.03;40.38;101497.31;5079216;27;45463;-85
2022/08/01 13:02:19;;;;;;;;;4.67;4.67;;;;;29.36;39.62;101498.66;5075632;27;45521;-86
2022/08/01 13:08:19;;;;;;;;;5.33;5.00;;;;;29.84;38.83;101487.97;5089459;27;46458;-87
2022/08/01 13:11:16;;;;;;;;;;;;;;;;;;;;;
2022/08/01 13:13:59;;;;;;;;;;;;;;;;;;;;;
2022/08/01 13:16:26;;;;;;;;;4.00;4.00;;;;;30.29;37.74;101474.72;5096294;27;72764;-87
2022/08/01 13:19:05;;;;;;;;;5.33;4.33;;;;;30.51;37.79;101477.53;5097002;27;45765;-88
2022/08/01 13:21:51;;;;;;;;;3.00;3.00;;;;;30.80;37.32;101479.88;5096638;27;45345;-86
2022/08/01 13:24:58;;;;;;;;;;;;;;;;;;;;;
2022/08/01 13:52:53;;;;;;;;;6.00;2.33;;;;;30.39;36.28;101483.03;6225673;22;1429970;-86
2022/08/01 13:55:39;;;;;;;;;4.33;3.00;;;;;30.40;36.41;101472.06;6253702;22;45174;-88
2022/08/01 13:58:05;;;;;;;;;3.00;3.00;;;;;30.39;36.17;101478.44;6279202;22;45475;-87
2022/08/01 14:00:43;;;;;;;;;;;;;;;;;;;;;
2022/08/01 14:03:11;;;;;;;;;3.00;3.00;;;;;30.21;35.56;101469.81;6254307;22;75293;-86
2022/08/01 14:05:37;;;;;;;;;4.00;4.00;;;;;30.02;35.83;101459.47;6253610;22;45258;-85
2022/08/01 14:08:19;;;;;;;;;3.33;3.00;;;;;29.94;35.82;101470.03;6279130;22;45344;-85
2022/08/01 14:10:46;;;;;;;;;3.00;2.33;;;;;29.85;35.52;101479.72;6279376;22;45450;-84
2022/08/01 14:13:46;;;;;;;;;;;;;;;;;;;;;
2022/08/01 14:17:04;;;;;;;;;5.00;5.00;;;;;29.55;36.07;101474.66;6250919;22;45235;-84
2022/08/01 14:20:01;;;;;;;;;;;;;;;;;;;;;
2022/08/01 14:23:03;;;;;;;;;;;;;;;;;;;;;
2022/08/01 14:25:44;;;;;;;;;2.00;2.00;;;;;29.24;36.61;101476.84;6253753;22;75190;-84
2022/08/01 14:28:57;;;;;;;;;;;;;;;;;;;;;
2022/08/01 14:38:18;;;;;;;;;;;;;;;;;;;;;
2022/08/01 14:41:07;;;;;;;;;;;;;;;;;;;;;
2022/08/01 14:47:06;;;;;;;;;5.33;4.67;;;;;28.62;37.21;101473.03;6240500;22;45160;-84
2022/08/01 14:49:44;;;;;;;;;4.67;4.67;;;;;28.64;37.05;101468.38;6267912;22;46122;-84
2022/08/01 14:52:25;;;;;;;;;;;;;;;;;;;;;
2022/08/01 14:59:06;;;;;;;;;5.00;5.00;;;;;28.48;37.97;101464.00;6302972;22;45305;-84
2022/08/01 15:28:47;;;;;;;;;4.00;4.00;;;;;28.27;38.24;101465.41;6142920;23;46043;-84
2022/08/01 15:32:10;;;;;;;;;;;;;;;;;;;;;
2022/08/01 15:34:39;;;;;;;;;3.33;2.33;;;;;28.25;38.30;101445.69;6116942;23;68490;-83
2022/08/01 15:37:06;;;;;;;;;5.00;3.33;;;;;28.26;38.13;101453.72;6143023;23;44840;-82
2022/08/01 15:39:41;;;;;;;;;3.33;3.33;;;;;28.25;38.28;101451.97;6204213;22;47449;-81
2022/08/01 15:42:12;;;;;;;;;4.67;4.67;;;;;28.25;38.23;101443.84;6326880;22;44944;-85
2022/08/01 15:44:46;;;;;;;;;4.00;4.00;;;;;28.33;38.32;101457.78;6327534;22;45086;-84
2022/08/01 15:48:24;;;;;;;;;3.67;2.00;;;;;28.34;38.13;101440.53;6301282;22;45524;-85
2022/08/01 17:08:16;;;;;;;;;3.00;3.00;;;;;29.19;35.74;101430.19;6139044;22;46859;-82
2022/08/01 17:10:41;;;;;;;;;2.67;2.67;;;;;29.19;36.16;101432.91;6248390;22;45492;-84
2022/08/01 17:13:07;;;;;;;;;2.67;2.67;;;;;29.13;35.57;101427.03;6275398;22;48348;-85
2022/08/01 17:15:33;;;;;;;;;4.33;4.00;;;;;29.07;35.96;101425.63;6249155;22;46056;-85
2022/08/01 17:18:00;;;;;;;;;2.33;2.33;;;;;29.03;35.59;101424.09;6249917;22;45362;-85
2022/08/01 17:20:25;;;;;;;;;5.00;4.00;;;;;29.00;36.13;101424.28;6275359;22;45148;-84
2022/08/01 17:22:51;;;;;;;;;3.67;2.67;;;;;29.05;36.15;101421.28;6275404;22;46946;-85
2022/08/01 17:25:16;;;;;;;;;3.00;2.00;;;;;29.52;36.29;101430.59;6250117;22;45233;-86
2022/08/01 17:27:42;;;;;;;;;4.67;4.67;;;;;30.82;35.41;101417.22;6249212;22;45195;-85
2022/08/01 17:30:08;;;;;;;;;4.00;4.00;;;;;32.05;33.91;101414.50;6250781;22;45229;-87
2022/08/01 17:32:38;;;;;;;;;3.67;3.33;;;;;33.12;32.61;101414.44;6249772;22;47394;-86
2022/08/01 17:35:04;;;;;;;;;4.33;4.33;;;;;33.65;31.15;101414.25;6251319;22;45405;-89
2022/08/01 17:37:29;;;;;;;;;2.67;2.67;;;;;33.68;30.84;101408.53;6250870;22;45115;-87